Time,TemperatureF,DewpointF,PressureIn,WindDirection,WindDirectionDegrees,WindSpeedMPH,WindSpeedGustMPH,Humidity,HourlyPrecipIn,Conditions,Clouds,dailyrainin,SoftwareType,DateUTC
2013-04-11 00:02:00,21.0,13.0,-100.00,SE,145,1.0,2.0,72,-99.99,,,-99.99,,2013-04-11 06:02:00,
2013-04-11 00:12:00,21.0,13.0,-100.00,SE,145,1.0,2.0,72,-99.99,,,-99.99,,2013-04-11 06:12:00,
2013-04-11 00:22:00,21.0,14.0,-100.00,ESE,120,2.0,3.0,72,-99.99,,,-99.99,,2013-04-11 06:22:00,
2013-04-11 00:32:00,20.0,13.0,-100.00,SE,135,1.0,3.0,72,-99.99,,,-99.99,,2013-04-11 06:32:00,
2013-04-11 00:42:00,20.0,13.0,-100.00,SE,135,1.0,3.0,72,-99.99,,,-99.99,,2013-04-11 06:42:00,
2013-04-11 00:52:00,20.0,13.0,-100.00,SSW,195,1.0,2.0,73,-99.99,,,-99.99,,2013-04-11 06:52:00,
2013-04-11 01:02:00,20.0,13.0,-100.00,ESE,115,2.0,3.0,74,-99.99,,,-99.99,,2013-04-11 07:02:00,
2013-04-11 01:12:00,20.0,13.0,-100.00,ESE,115,2.0,3.0,74,-99.99,,,-99.99,,2013-04-11 07:12:00,
2013-04-11 01:22:00,19.0,12.0,-100.00,SE,125,0.0,2.0,74,-99.99,,,-99.99,,2013-04-11 07:22:00,
2013-04-11 01:32:00,20.0,13.0,-100.00,ESE,105,4.0,4.0,75,-99.99,,,-99.99,,2013-04-11 07:32:00,
2013-04-11 01:42:00,20.0,13.0,-100.00,ESE,105,4.0,4.0,75,-99.99,,,-99.99,,2013-04-11 07:42:00,
2013-04-11 01:52:00,19.0,12.0,-100.00,ESE,110,6.0,7.0,76,-99.99,,,-99.99,,2013-04-11 07:52:00,
2013-04-11 02:03:00,18.0,12.0,-100.00,ESE,115,6.0,7.0,77,-99.99,,,-99.99,,2013-04-11 08:03:00,
2013-04-11 02:12:00,18.0,12.0,-100.00,ESE,115,6.0,7.0,77,-99.99,,,-99.99,,2013-04-11 08:12:00,
2013-04-11 02:22:00,18.0,12.0,-100.00,ESE,120,6.0,6.0,77,-99.99,,,-99.99,,2013-04-11 08:22:00,
2013-04-11 02:32:00,19.0,13.0,-100.00,ESE,120,5.0,7.0,77,-99.99,,,-99.99,,2013-04-11 08:32:00,
2013-04-11 02:42:00,19.0,13.0,-100.00,ESE,120,5.0,7.0,77,-99.99,,,-99.99,,2013-04-11 08:42:00,
2013-04-11 02:52:00,20.0,14.0,-100.00,ESE,110,5.0,6.0,77,-99.99,,,-99.99,,2013-04-11 08:52:00,
2013-04-11 03:02:00,20.0,13.0,-100.00,SE,125,5.0,7.0,75,-99.99,,,-99.99,,2013-04-11 09:02:00,
2013-04-11 03:12:00,20.0,13.0,-100.00,SE,125,5.0,7.0,75,-99.99,,,-99.99,,2013-04-11 09:12:00,
2013-04-11 03:22:00,20.0,13.0,-100.00,SSE,160,2.0,4.0,75,-99.99,,,-99.99,,2013-04-11 09:22:00,
2013-04-11 03:33:00,20.0,13.0,-100.00,ESE,120,2.0,3.0,75,-99.99,,,-99.99,,2013-04-11 09:33:00,
2013-04-11 03:43:00,20.0,13.0,-100.00,ESE,120,2.0,3.0,75,-99.99,,,-99.99,,2013-04-11 09:43:00,
2013-04-11 03:53:00,19.0,12.0,-100.00,ESE,105,1.0,2.0,75,-99.99,,,-99.99,,2013-04-11 09:53:00,
2013-04-11 04:02:00,18.0,12.0,-100.00,East,95,5.0,6.0,76,-99.99,,,-99.99,,2013-04-11 10:02:00,
2013-04-11 04:12:00,18.0,12.0,-100.00,East,95,5.0,6.0,76,-99.99,,,-99.99,,2013-04-11 10:12:00,
2013-04-11 04:23:00,18.0,12.0,-100.00,ESE,105,4.0,6.0,76,-99.99,,,-99.99,,2013-04-11 10:23:00,
2013-04-11 04:32:00,17.0,11.0,-100.00,ESE,115,6.0,8.0,77,-99.99,,,-99.99,,2013-04-11 10:32:00,
2013-04-11 04:42:00,17.0,11.0,-100.00,ESE,115,6.0,8.0,77,-99.99,,,-99.99,,2013-04-11 10:42:00,
2013-04-11 04:52:00,16.0,10.0,-100.00,SE,140,3.0,6.0,77,-99.99,,,-99.99,,2013-04-11 10:52:00,
2013-04-11 05:02:00,16.0,10.0,-100.00,SE,140,3.0,6.0,77,-99.99,,,-99.99,,2013-04-11 11:02:00,
2013-04-11 05:12:00,17.0,12.0,-100.00,SE,140,2.0,5.0,79,-99.99,,,-99.99,,2013-04-11 11:12:00,
2013-04-11 05:23:00,17.0,12.0,-100.00,ESE,120,4.0,5.0,79,-99.99,,,-99.99,,2013-04-11 11:23:00,
2013-04-11 05:32:00,20.0,15.0,-100.00,SE,135,5.0,6.0,79,-99.99,,,-99.99,,2013-04-11 11:32:00,
2013-04-11 05:42:00,20.0,15.0,-100.00,SE,135,5.0,6.0,79,-99.99,,,-99.99,,2013-04-11 11:42:00,
2013-04-11 05:52:00,21.0,17.0,-100.00,SE,135,6.0,7.0,80,-99.99,,,-99.99,,2013-04-11 11:52:00,
2013-04-11 06:02:00,23.0,18.0,-100.00,SSE,160,4.0,10.0,82,-99.99,,,-99.99,,2013-04-11 12:02:00,
2013-04-11 06:12:00,23.0,18.0,-100.00,SSE,160,4.0,10.0,82,-99.99,,,-99.99,,2013-04-11 12:12:00,
2013-04-11 06:22:00,23.0,18.0,-100.00,SSE,165,5.0,7.0,82,-99.99,,,-99.99,,2013-04-11 12:22:00,
2013-04-11 06:32:00,22.0,18.0,-100.00,SSW,195,6.0,7.0,82,-99.99,,,-99.99,,2013-04-11 12:32:00,
2013-04-11 06:42:00,22.0,18.0,-100.00,SSW,195,6.0,7.0,82,-99.99,,,-99.99,,2013-04-11 12:42:00,
2013-04-11 06:52:00,22.0,18.0,-100.00,SSW,205,6.0,7.0,82,-99.99,,,-99.99,,2013-04-11 12:52:00,
2013-04-11 07:02:00,22.0,18.0,-100.00,South,170,3.0,6.0,82,-99.99,,,-99.99,,2013-04-11 13:02:00,
2013-04-11 07:13:00,22.0,18.0,-100.00,South,170,3.0,6.0,82,-99.99,,,-99.99,,2013-04-11 13:13:00,
2013-04-11 07:23:00,22.0,18.0,-100.00,SSE,165,4.0,6.0,82,-99.99,,,-99.99,,2013-04-11 13:23:00,
2013-04-11 07:32:00,22.0,18.0,-100.00,SSE,165,4.0,6.0,82,-99.99,,,-99.99,,2013-04-11 13:32:00,
2013-04-11 08:02:00,22.0,18.0,-100.00,SSE,155,1.0,3.0,82,-99.99,,,-99.99,,2013-04-11 14:02:00,
2013-04-11 08:12:00,22.0,18.0,-100.00,SSE,155,1.0,3.0,82,-99.99,,,-99.99,,2013-04-11 14:12:00,
2013-04-11 08:22:00,23.0,18.0,-100.00,SE,130,1.0,2.0,82,-99.99,,,-99.99,,2013-04-11 14:22:00,
2013-04-11 08:32:00,25.0,20.0,-100.00,SSE,155,1.0,3.0,82,-99.99,,,-99.99,,2013-04-11 14:32:00,
2013-04-11 08:42:00,25.0,20.0,-100.00,SSE,155,1.0,3.0,82,-99.99,,,-99.99,,2013-04-11 14:42:00,
2013-04-11 08:53:00,26.0,22.0,-100.00,SE,125,1.0,2.0,82,-99.99,,,-99.99,,2013-04-11 14:53:00,
2013-04-11 09:02:00,27.0,22.0,-100.00,SE,140,3.0,4.0,82,-99.99,,,-99.99,,2013-04-11 15:02:00,
2013-04-11 09:12:00,27.0,22.0,-100.00,SE,140,3.0,4.0,82,-99.99,,,-99.99,,2013-04-11 15:12:00,
2013-04-11 09:22:00,27.0,22.0,-100.00,SSE,155,4.0,6.0,80,-99.99,,,-99.99,,2013-04-11 15:22:00,
2013-04-11 09:32:00,28.0,20.0,-100.00,SE,125,6.0,7.0,69,-99.99,,,-99.99,,2013-04-11 15:32:00,
2013-04-11 09:43:00,28.0,20.0,-100.00,SE,125,6.0,7.0,69,-99.99,,,-99.99,,2013-04-11 15:43:00,
2013-04-11 09:53:00,29.0,19.0,-100.00,ESE,120,7.0,9.0,66,-99.99,,,-99.99,,2013-04-11 15:53:00,
2013-04-11 10:02:00,31.0,20.0,-100.00,ESE,105,7.0,9.0,62,-99.99,,,-99.99,,2013-04-11 16:02:00,
2013-04-11 10:13:00,31.0,20.0,-100.00,ESE,105,7.0,9.0,62,-99.99,,,-99.99,,2013-04-11 16:13:00,
2013-04-11 10:23:00,31.0,18.0,-100.00,ESE,120,7.0,9.0,60,-99.99,,,-99.99,,2013-04-11 16:23:00,
2013-04-11 10:32:00,32.0,18.0,-100.00,ESE,105,7.0,9.0,55,-99.99,,,-99.99,,2013-04-11 16:32:00,
2013-04-11 10:42:00,32.0,18.0,-100.00,ESE,105,7.0,9.0,55,-99.99,,,-99.99,,2013-04-11 16:42:00,
2013-04-11 10:53:00,32.0,18.0,-100.00,SE,130,6.0,10.0,55,-99.99,,,-99.99,,2013-04-11 16:53:00,
2013-04-11 11:02:00,32.0,16.0,-100.00,ESE,110,7.0,10.0,50,-99.99,,,-99.99,,2013-04-11 17:02:00,
2013-04-11 11:13:00,32.0,16.0,-100.00,ESE,110,7.0,10.0,50,-99.99,,,-99.99,,2013-04-11 17:13:00,
2013-04-11 11:23:00,32.0,14.0,-100.00,SE,125,8.0,12.0,47,-99.99,,,-99.99,,2013-04-11 17:23:00,
2013-04-11 11:32:00,33.0,14.0,-100.00,ESE,115,9.0,14.0,45,-99.99,,,-99.99,,2013-04-11 17:32:00,
2013-04-11 11:43:00,33.0,14.0,-100.00,ESE,115,9.0,14.0,45,-99.99,,,-99.99,,2013-04-11 17:43:00,
2013-04-11 11:53:00,33.0,14.0,-100.00,SE,125,9.0,15.0,45,-99.99,,,-99.99,,2013-04-11 17:53:00,
2013-04-11 12:03:00,33.0,14.0,-100.00,ESE,120,9.0,13.0,45,-99.99,,,-99.99,,2013-04-11 18:03:00,
2013-04-11 12:13:00,33.0,14.0,-100.00,ESE,120,9.0,13.0,45,-99.99,,,-99.99,,2013-04-11 18:13:00,
2013-04-11 12:23:00,33.0,14.0,-100.00,ESE,105,11.0,14.0,45,-99.99,,,-99.99,,2013-04-11 18:23:00,
2013-04-11 12:33:00,34.0,15.0,-100.00,ESE,110,7.0,11.0,46,-99.99,,,-99.99,,2013-04-11 18:33:00,
2013-04-11 12:42:00,34.0,15.0,-100.00,ESE,110,7.0,11.0,46,-99.99,,,-99.99,,2013-04-11 18:42:00,
2013-04-11 12:53:00,34.0,15.0,-100.00,ESE,110,7.0,11.0,46,-99.99,,,-99.99,,2013-04-11 18:53:00,
2013-04-11 13:03:00,34.0,15.0,-100.00,ESE,115,7.0,11.0,44,-99.99,,,-99.99,,2013-04-11 19:03:00,
2013-04-11 13:14:00,34.0,15.0,-100.00,ESE,115,7.0,11.0,44,-99.99,,,-99.99,,2013-04-11 19:14:00,
2013-04-11 13:22:00,34.0,15.0,-100.00,ESE,120,6.0,11.0,44,-99.99,,,-99.99,,2013-04-11 19:22:00,
2013-04-11 13:32:00,34.0,14.0,-100.00,SE,125,7.0,9.0,43,-99.99,,,-99.99,,2013-04-11 19:32:00,
2013-04-11 13:43:00,34.0,14.0,-100.00,SE,125,7.0,9.0,43,-99.99,,,-99.99,,2013-04-11 19:43:00,
2013-04-11 13:53:00,35.0,15.0,-100.00,SE,140,5.0,7.0,43,-99.99,,,-99.99,,2013-04-11 19:53:00,
2013-04-11 14:02:00,36.0,15.0,-100.00,SE,125,4.0,9.0,42,-99.99,,,-99.99,,2013-04-11 20:02:00,
2013-04-11 14:13:00,36.0,15.0,-100.00,SE,125,4.0,9.0,42,-99.99,,,-99.99,,2013-04-11 20:13:00,
2013-04-11 14:22:00,37.0,16.0,-100.00,SSE,150,3.0,6.0,41,-99.99,,,-99.99,,2013-04-11 20:22:00,
2013-04-11 14:33:00,37.0,16.0,-100.00,SW,220,2.0,6.0,41,-99.99,,,-99.99,,2013-04-11 20:33:00,
2013-04-11 14:42:00,37.0,16.0,-100.00,SW,220,2.0,6.0,41,-99.99,,,-99.99,,2013-04-11 20:42:00,
2013-04-11 14:52:00,38.0,16.0,-100.00,SSW,200,3.0,4.0,40,-99.99,,,-99.99,,2013-04-11 20:52:00,
2013-04-11 15:02:00,40.0,17.0,-100.00,WNW,295,0.0,2.0,38,-99.99,,,-99.99,,2013-04-11 21:02:00,
2013-04-11 15:12:00,40.0,17.0,-100.00,WNW,295,0.0,2.0,38,-99.99,,,-99.99,,2013-04-11 21:12:00,
2013-04-11 15:22:00,41.0,17.0,-100.00,NNW,330,0.0,3.0,37,-99.99,,,-99.99,,2013-04-11 21:22:00,
2013-04-11 15:33:00,38.0,15.0,-100.00,SSE,155,4.0,4.0,38,-99.99,,,-99.99,,2013-04-11 21:33:00,
2013-04-11 15:42:00,38.0,15.0,-100.00,SSE,155,4.0,4.0,38,-99.99,,,-99.99,,2013-04-11 21:42:00,
2013-04-11 15:54:00,38.0,15.0,-100.00,SSW,195,2.0,4.0,38,-99.99,,,-99.99,,2013-04-11 21:54:00,
2013-04-11 16:03:00,38.0,16.0,-100.00,SW,235,4.0,6.0,39,-99.99,,,-99.99,,2013-04-11 22:03:00,
2013-04-11 16:13:00,38.0,16.0,-100.00,SW,235,4.0,6.0,39,-99.99,,,-99.99,,2013-04-11 22:13:00,
2013-04-11 16:23:00,39.0,16.0,-100.00,WSW,255,4.0,6.0,39,-99.99,,,-99.99,,2013-04-11 22:23:00,
2013-04-11 16:33:00,39.0,17.0,-100.00,SW,215,6.0,7.0,40,-99.99,,,-99.99,,2013-04-11 22:33:00,
2013-04-11 16:44:00,39.0,17.0,-100.00,SW,215,6.0,7.0,40,-99.99,,,-99.99,,2013-04-11 22:44:00,
2013-04-11 16:53:00,39.0,17.0,-100.00,West,260,6.0,9.0,41,-99.99,,,-99.99,,2013-04-11 22:53:00,
2013-04-11 17:03:00,38.0,17.0,-100.00,South,175,2.0,7.0,41,-99.99,,,-99.99,,2013-04-11 23:03:00,
2013-04-11 17:13:00,38.0,17.0,-100.00,South,175,2.0,7.0,41,-99.99,,,-99.99,,2013-04-11 23:13:00,
2013-04-11 17:23:00,39.0,18.0,-100.00,SSW,195,2.0,5.0,42,-99.99,,,-99.99,,2013-04-11 23:23:00,
2013-04-11 17:32:00,40.0,18.0,-100.00,SSW,210,1.0,4.0,40,-99.99,,,-99.99,,2013-04-11 23:32:00,
2013-04-11 17:42:00,40.0,18.0,-100.00,SSW,210,1.0,4.0,40,-99.99,,,-99.99,,2013-04-11 23:42:00,
2013-04-11 17:53:00,39.0,17.0,-100.00,NNW,335,3.0,4.0,41,-99.99,,,-99.99,,2013-04-11 23:53:00,
2013-04-11 18:02:00,38.0,17.0,-100.00,North,350,4.0,6.0,42,-99.99,,,-99.99,,2013-04-12 00:02:00,
2013-04-11 18:12:00,38.0,17.0,-100.00,North,350,4.0,6.0,42,-99.99,,,-99.99,,2013-04-12 00:12:00,
2013-04-11 18:22:00,38.0,18.0,-100.00,North,0,5.0,7.0,43,-99.99,,,-99.99,,2013-04-12 00:22:00,
2013-04-11 18:32:00,38.0,18.0,-100.00,North,350,4.0,6.0,43,-99.99,,,-99.99,,2013-04-12 00:32:00,
2013-04-11 18:42:00,38.0,18.0,-100.00,North,350,4.0,6.0,43,-99.99,,,-99.99,,2013-04-12 00:42:00,
2013-04-11 18:53:00,38.0,18.0,-100.00,NNW,335,4.0,6.0,43,-99.99,,,-99.99,,2013-04-12 00:53:00,
2013-04-11 19:02:00,37.0,17.0,-100.00,ENE,60,7.0,9.0,43,-99.99,,,-99.99,,2013-04-12 01:02:00,
2013-04-11 19:12:00,37.0,17.0,-100.00,ENE,60,7.0,9.0,43,-99.99,,,-99.99,,2013-04-12 01:12:00,
2013-04-11 19:22:00,36.0,17.0,-100.00,ENE,60,7.0,9.0,45,-99.99,,,-99.99,,2013-04-12 01:22:00,
2013-04-11 19:32:00,35.0,17.0,-100.00,ENE,60,7.0,10.0,45,-99.99,,,-99.99,,2013-04-12 01:32:00,
2013-04-11 19:42:00,35.0,17.0,-100.00,ENE,60,7.0,10.0,45,-99.99,,,-99.99,,2013-04-12 01:42:00,
2013-04-11 19:52:00,35.0,16.0,-100.00,ENE,65,7.0,9.0,45,-99.99,,,-99.99,,2013-04-12 01:52:00,
2013-04-11 20:03:00,35.0,16.0,-100.00,ENE,70,6.0,7.0,45,-99.99,,,-99.99,,2013-04-12 02:03:00,
2013-04-11 20:12:00,35.0,16.0,-100.00,ENE,70,6.0,7.0,45,-99.99,,,-99.99,,2013-04-12 02:12:00,
2013-04-11 20:22:00,35.0,16.0,-100.00,ENE,70,6.0,7.0,46,-99.99,,,-99.99,,2013-04-12 02:22:00,
2013-04-11 20:32:00,34.0,16.0,-100.00,ENE,65,6.0,6.0,47,-99.99,,,-99.99,,2013-04-12 02:32:00,
2013-04-11 20:42:00,34.0,16.0,-100.00,ENE,65,6.0,6.0,47,-99.99,,,-99.99,,2013-04-12 02:42:00,
2013-04-11 20:52:00,34.0,16.0,-100.00,ENE,60,5.0,6.0,46,-99.99,,,-99.99,,2013-04-12 02:52:00,
2013-04-11 21:02:00,34.0,15.0,-100.00,ENE,60,4.0,4.0,46,-99.99,,,-99.99,,2013-04-12 03:02:00,
2013-04-11 21:12:00,34.0,15.0,-100.00,ENE,60,4.0,4.0,46,-99.99,,,-99.99,,2013-04-12 03:12:00,
2013-04-11 21:22:00,34.0,15.0,-100.00,East,85,6.0,8.0,46,-99.99,,,-99.99,,2013-04-12 03:22:00,
2013-04-11 21:33:00,33.0,14.0,-100.00,East,80,8.0,10.0,45,-99.99,,,-99.99,,2013-04-12 03:33:00,
2013-04-11 21:43:00,33.0,14.0,-100.00,East,80,8.0,10.0,45,-99.99,,,-99.99,,2013-04-12 03:43:00,
2013-04-11 21:53:00,33.0,15.0,-100.00,East,85,7.0,11.0,46,-99.99,,,-99.99,,2013-04-12 03:53:00,
2013-04-11 22:03:00,32.0,15.0,-100.00,East,90,9.0,12.0,49,-99.99,,,-99.99,,2013-04-12 04:03:00,
2013-04-11 22:13:00,32.0,15.0,-100.00,East,90,9.0,12.0,49,-99.99,,,-99.99,,2013-04-12 04:13:00,
2013-04-11 22:23:00,31.0,14.0,-100.00,East,90,9.0,12.0,48,-99.99,,,-99.99,,2013-04-12 04:23:00,
2013-04-11 22:33:00,31.0,14.0,-100.00,East,85,9.0,12.0,49,-99.99,,,-99.99,,2013-04-12 04:33:00,
2013-04-11 22:43:00,31.0,14.0,-100.00,East,85,9.0,12.0,49,-99.99,,,-99.99,,2013-04-12 04:43:00,
2013-04-11 22:53:00,30.0,14.0,-100.00,East,85,9.0,12.0,49,-99.99,,,-99.99,,2013-04-12 04:53:00,
2013-04-11 23:03:00,30.0,15.0,-100.00,East,85,9.0,11.0,52,-99.99,,,-99.99,,2013-04-12 05:03:00,
2013-04-11 23:12:00,30.0,15.0,-100.00,East,85,9.0,11.0,52,-99.99,,,-99.99,,2013-04-12 05:12:00,
2013-04-11 23:23:00,30.0,15.0,-100.00,East,90,9.0,12.0,53,-99.99,,,-99.99,,2013-04-12 05:23:00,
2013-04-11 23:32:00,29.0,16.0,-100.00,East,90,8.0,11.0,56,-99.99,,,-99.99,,2013-04-12 05:32:00,
2013-04-11 23:42:00,29.0,16.0,-100.00,East,90,8.0,11.0,56,-99.99,,,-99.99,,2013-04-12 05:42:00,
2013-04-11 23:52:00,29.0,16.0,-100.00,East,85,8.0,9.0,57,-99.99,,,-99.99,,2013-04-12 05:52:00,